Surabaya Perak, Indonesia

07:15 AM WIT on Agustus 31, 2014 (GMT +0700)
Juanda | Change Station
CLOSE
Current Station
Airport
Location: Juanda,
Elevation: 10 ft
Nearby Weather Stations

Elev 10 ft 7.38 °S, 112.79 °E | Updated 15 minutes ago

Haze
Pandangan Kabur
73 °F
Feels Like 73 °F
N
6
Angin Variable Angin from Dari Barat ke Baratdaya

Siang Ini
High -- | Low -- °F
--% Chance of Precip.
Yesterday
High -- | Low -- °F
Precip. -- Inch
5:30 AM 5:28 PM
Waxing Crescent, 26% visible
Tekanan 29.89 Inch
Jarak Pandang 3.1 Mil
Awan
Titik Embun 64 °F
Kelembaban 73%
Rainfall 0.00 Inch
Snow Depth Not available.
UV Not available.
Pollen Not available.
Air Quality Not available.
Flu Activity Not available.
METAR WARR 310000Z 24005KT 5000 HZ NSC 23/18 Q1012

More Conditions Fewer Conditions

Tekanan 29.89 Inch
Jarak Pandang 3.1 Mil
Awan
Titik Embun 64 °F
Kelembaban 73%
Rainfall 0.00 Inch
Snow Depth Not available.
UV Not available.
Pollen Not available.
Air Quality Not available.
Flu Activity Not available.
METAR WARR 310000Z 24005KT 5000 HZ NSC 23/18 Q1012

More Conditions Fewer Conditions

10-Day Weather Forecast

Almanac

Astronomi

Aug. 31, 2014 Rise Set
Actual Time 5:30 AM WIT 5:28 PM WIT
Civil Twilight 5:09 AM WIT 5:49 PM WIT
Nautical Twilight 4:45 AM WIT 6:13 PM WIT
Astronomical Twilight 4:20 AM WIT 6:38 PM WIT
Moon 9:15 AM WIT 9:53 PM WIT
Length Of Visible Light 12h 39m
Lama Satu Hari
11h 57m
Tomorrow will be 0m 23s longer.
Waxing Crescent, 26% of the Moon is Illuminated
Aug 30
Waxing Crescent
Sep 2
Triwulan Pertama
Sep 8
Bulan Purnama
Sep 15
Kuartil Terakhir
Sep 24
New

Yesterday's Extremes

Country Highs Country Lows

Community

WunderPhotos

Upload Photos

1,748,696 photos uploaded!

Nearby

Snow Depth

Not available.

Earthquake Activity

City Distance Mag. Time & Date
No recent earthquake activity has been reported nearby.
Minimum magnitude displayed is 2.5.

Coastal Water Temperatures

Lokasi Temperatur
No Stations Reporting

Nearby Weather Stations